Emilio V. Bunge, Argentina
Current Conditions -  °F | °C
As of 2:00 PM on Thursday 27 Nov 2014 (Local Time) from SAOC Reporting Station
Few Clouds Few Clouds  
Wind Chill: 90°   Ceiling: Unl
Heat Index: 90°   Visibility: 6mi
Dew Point: 45°   Wind: 21mph
Humidity: 21%   Direction: 360°N
Pressure: 29.88"   Gusts: 33mph
Location:  34.76°S, 63.08°W
Report Text: SAOC 271700Z 36018G29KT 9999 FEW030 32/07 Q1012
Loading
Personal Weather Stations






























Interactive Weather Map New forecast layout! Learn more

10-Day Weather Forecast

Advertisements
Track Severe Weather on mobile